Flight Track Log - Related Links

Times and Time Zones

All times are in EDT time to prevent confusion due to time zone crossing. See the UAL4257 flight status page for this flight to view local times or setup timezone preferences in your user account.

Time Position Orientation Groundspeed Altitude Reporting Facility
EDT Latitude Longitude Course Direction KTS MPH feet Rate Location/Type
Sat 12:16:59 25.9725 -99.8483 44° Northeast 292 336 11,800  Level Houston Center
Sat 12:17:00 26.3398 -99.5017 44° Northeast  Level Estimated
Sat 12:18:00 26.4122 -99.4230 44° Northeast  Level Estimated
Sat 12:18:01 26.0425 -99.7756 43° Northeast 321 369 13,100  Level Houston Center
Sat 12:19:00 26.4846 -99.3443 44° Northeast  Level Estimated
Sat 12:19:03 26.1106 -99.6944 47° Northeast 341 392 14,300  Level Houston Center
Sat 12:20:00 26.5569 -99.2654 44° Northeast  Level Estimated
Sat 12:20:05 26.1808 -99.6094 47° Northeast 357 411 15,500  Level Houston Center
Sat 12:21:00 26.6292 -99.1864 44° Northeast  Level Estimated
Sat 12:21:07 26.2514 -99.5211 48° Northeast 370 426 16,600  Level Houston Center
Sat 12:22:00 26.7014 -99.1073 44° Northeast  Level Estimated
Sat 12:22:09 26.3219 -99.4336 48° Northeast 376 433 17,800  Level Houston Center
Sat 12:23:11 26.4097 -99.3267 47° Northeast 383 441 19,000 1,152 Climbing Houston Center
Sat 12:24:14 26.4858 -99.2397 46° Northeast 390 449 20,200 1,152 Climbing Houston Center
Sat 12:25:16 26.5678 -99.1586 42° Northeast 394 453 21,400 1,113 Climbing Houston Center
Sat 12:26:18 26.6517 -99.0761 41° Northeast 397 457 22,500 1,113 Climbing Houston Center
Sat 12:27:20 26.7347 -98.9928 42° Northeast 401 461 23,700 1,306 Climbing Houston Center
Sat 12:28:22 26.8356 -98.8928 41° Northeast 404 465 25,200 1,258 Climbing Houston Center
Sat 12:29:24 26.9194 -98.8067 42° Northeast 409 471 26,300 871 Climbing Houston Center
Sat 12:30:26 27.0044 -98.7211 42° Northeast 411 473 27,000 339 Climbing Houston Center
Sat 12:31:28 27.0925 -98.6319 42° Northeast 425 489 27,000  Level Houston Center
Sat 12:32:30 27.1850 -98.5394 42° Northeast 443 510 27,000  Level Houston Center
Sat 12:33:32 27.2972 -98.4236 43° Northeast 457 526 27,000  Level Houston Center
Sat 12:34:34 27.3936 -98.3272 42° Northeast 464 534 27,000  Level Houston Center
Sat 12:35:36 27.4919 -98.2317 41° Northeast 468 539 27,000  Level Houston Center
Sat 12:36:39 27.5908 -98.1342 41° Northeast 472 543 27,000  Level Houston Center
Sat 12:37:41 27.6892 -98.0367 41° Northeast 472 543 27,000  Level Houston Center
Sat 12:38:43 27.8081 -97.9200 41° Northeast 473 544 27,000  Level Houston Center
Sat 12:39:45 27.9072 -97.8233 41° Northeast 472 543 27,000  Level Houston Center
Sat 12:40:47 28.0044 -97.7278 41° Northeast 472 543 27,000  Level Houston Center
Sat 12:41:49 28.1028 -97.6303 41° Northeast 471 542 27,000  Level Houston Center
Sat 12:42:51 28.2011 -97.5331 41° Northeast 469 540 27,000  Level Houston Center
Sat 12:43:53 28.3189 -97.4158 41° Northeast 468 539 27,000  Level Houston Center
Sat 12:44:55 28.4175 -97.3169 41° Northeast 472 543 27,000 -290 Level Houston Center
Sat 12:45:57 28.5142 -97.2194 42° Northeast 467 537 26,400 -720 Descending Houston Center
Sat 12:47:00 28.6075 -97.1244 42° Northeast 453 521 25,500 -864 Descending Houston Center
Sat 12:48:02 28.7044 -97.0278 41° Northeast 462 532 24,600 -1,016 Descending Houston Center
Sat 12:49:04 28.8217 -96.9089 42° Northeast 470 541 23,400 -1,016 Descending Houston Center
Sat 12:50:06 28.9181 -96.8103 42° Northeast 468 539 22,500 -1,065 Descending Houston Center
Sat 12:51:08 29.0108 -96.7156 42° Northeast 458 527 21,200 -1,306 Descending Houston Center
Sat 12:52:10 29.1033 -96.6222 41° Northeast 450 518 19,800 -1,429 Descending Houston Center
Sat 12:52:53 29.1731 -96.5503 42° Northeast 435 501 18,700 -1,452 Descending Houston Center
Sat 12:53:12 29.1906 -96.5336 40° Northeast 427 491 18,300 -2,027 Descending Houston Center
Sat 12:54:07 29.2756 -96.4458 42° Northeast 393 452 16,200 -2,486 Descending Houston Center
Sat 12:55:03 29.3547 -96.3653 42° Northeast 393 452 13,700 -2,634 Descending Houston Center
Sat 12:56:10 29.4397 -96.2792 41° Northeast 378 435 10,800 -1,734 Descending Houston Center
Sat 12:57:11 29.5169 -96.1986 42° Northeast 344 396 10,000 -409 Descending Houston Center
Sat 12:58:22 29.5747 -96.1064 54° Northeast 353 406 9,900 -488 Descending Houston Center
Sat 12:59:14 29.6208 -96.0189 59° Northeast 294 338 9,000 -1,500 Descending Houston Center
Sat 13:00:10 29.6617 -95.9567 53° Northeast 276 318 7,200 -1,562 Descending Houston Center
Sat 13:00:27 29.6686 -95.9522 29° Northeast 272 313 7,100 -197 Descending Houston Center
Sat 13:01:11 29.7250 -95.9108 33° Northeast 256 295 7,000 -97 Descending Houston Center
Sat 13:01:29 29.7419 -95.8972 35° Northeast 264 304 7,000  Level Houston Center
Sat 13:02:12 29.7836 -95.8633 35° Northeast 261 300 7,000  Level Houston Center
Sat 13:02:31 29.8008 -95.8478 38° Northeast 261 300 7,000  Level Houston Center
Sat 13:03:19 29.8519 -95.8047 36° Northeast 268 308 7,000 -436 Level Houston Center
Sat 13:04:21 29.8961 -95.7347 54° Northeast 267 307 6,200 -1,366 Descending Houston Center
Sat 13:05:22 29.9342 -95.6650 58° Northeast 255 293 4,200 -1,737 Descending Houston Center
Sat 13:05:37 29.9408 -95.6558 50° Northeast 260 299 4,000 -984 Descending Houston Center
Sat 13:06:23 29.9703 -95.6006 58° Northeast 236 272 3,200 -968 Descending Houston Center
Sat 13:06:39 29.9772 -95.5908 50° Northeast 248 285 3,000 -154 Descending Houston Center
Sat 13:07:41 29.9939 -95.5242 74° East 237 273 3,000 -505 Level Houston Center
Sat 13:08:26 29.9919 -95.4678 92° East 163 188 2,100 -1,065 Descending Houston Center
Sat 13:08:43 29.9936 -95.4542 82° East 201 231 1,900 -750 Descending Houston Center
Sat 13:09:22 29.9925 -95.4292 93° East 129 148 1,400 -677 Descending Houston Center
Sat 13:09:45 29.9939 -95.4125 84° East 163 188 1,200 -689 Descending Houston Center
Sat 13:10:23 29.9931 -95.3881 92° East 128 147 700 -667 Descending Houston Center
Sat 13:10:48 29.9944 -95.3714 84° East 141 162 500 -480 Descending Houston Center
Sat 13:12:00 29.9833 -95.3333 49° Northeast  Level FlightAware Approximate
Sat 13:19:00 29.9844 -95.3414 49° Northeast  Level Estimated

Login

Don't have an account? Register now (free) for customized features, flight alerts, and more!